Time;durP1;ratioP1;P1;durP2;ratioP2;P2;SDS_P1;SDS_P2;PMS_P1;PMS_P2;Temp;Humidity;BMP_temperature;BMP_pressure;BME280_temperature;BME280_humidity;BME280_pressure;Samples;Min_cycle;Max_cycle;Signal;HPM_P1;HPM_P2
2022/02/23 00:00:21;;;;;;;1.00;1.00;;;;;;;7.38;47.84;97737.44;5088455;28;20105;-71
2022/02/23 00:02:47;;;;;;;2.23;1.10;;;;;;;7.55;47.33;97744.16;5054579;28;20043;-70
2022/02/23 00:05:13;;;;;;;1.85;1.00;;;;;;;7.64;47.16;97748.31;5054112;28;20051;-70
2022/02/23 00:07:39;;;;;;;1.40;1.03;;;;;;;7.79;46.61;97752.56;5070790;28;20155;-71
2022/02/23 00:10:05;;;;;;;1.40;1.20;;;;;;;7.56;47.18;97751.06;5053858;28;20044;-70
2022/02/23 00:12:31;;;;;;;1.10;1.00;;;;;;;7.63;47.10;97765.16;5072400;28;20044;-73
2022/02/23 00:14:58;;;;;;;1.50;1.20;;;;;;;7.51;47.62;97748.16;5091265;28;20043;-70
2022/02/23 00:17:25;;;;;;;1.00;1.00;;;;;;;7.31;47.77;97758.47;5056341;28;20052;-70
2022/02/23 00:19:52;;;;;;;0.93;0.93;;;;;;;7.15;48.27;97763.94;5056540;28;20586;-69
2022/02/23 00:22:18;;;;;;;2.00;1.23;;;;;;;6.93;48.36;97793.03;5072520;28;20048;-71
2022/02/23 00:24:44;;;;;;;1.37;1.00;;;;;;;6.98;48.31;97765.09;5072788;28;20126;-70
2022/02/23 00:27:10;;;;;;;1.40;1.07;;;;;;;7.11;47.85;97785.59;5089106;28;20524;-71
2022/02/23 00:29:35;;;;;;;1.87;0.90;;;;;;;7.41;47.32;97771.41;5056043;28;20385;-72
2022/02/23 00:32:02;;;;;;;1.30;1.10;;;;;;;7.43;47.75;97764.91;5089573;28;20179;-71
2022/02/23 00:34:28;;;;;;;2.55;1.10;;;;;;;7.33;47.38;97766.22;5091453;28;20042;-71
2022/02/23 00:36:56;;;;;;;0.83;0.83;;;;;;;7.55;46.94;97768.72;5056344;28;20040;-72
2022/02/23 00:39:23;;;;;;;1.43;0.93;;;;;;;7.66;47.06;97773.53;5039537;28;20043;-70
2022/02/23 00:41:50;;;;;;;1.10;1.00;;;;;;;7.48;47.03;97788.13;5072453;28;20096;-70
2022/02/23 00:44:16;;;;;;;1.20;0.90;;;;;;;7.33;47.28;97761.75;5072116;28;20397;-70
2022/02/23 00:46:42;;;;;;;1.73;1.30;;;;;;;7.12;48.06;97787.25;5072094;28;20040;-70
2022/02/23 00:49:08;;;;;;;1.70;1.02;;;;;;;7.30;47.60;97775.31;5055350;28;20036;-73
2022/02/23 00:51:34;;;;;;;1.23;1.00;;;;;;;7.59;46.95;97788.50;5055678;28;20036;-71
2022/02/23 00:54:00;;;;;;;1.50;0.90;;;;;;;7.41;47.51;97768.75;5056350;28;20055;-71
2022/02/23 00:56:26;;;;;;;1.20;1.00;;;;;;;7.10;47.84;97786.59;5072168;28;20040;-70
2022/02/23 00:58:52;;;;;;;0.85;0.85;;;;;;;7.30;47.62;97795.63;5072101;28;20491;-70
2022/02/23 01:01:18;;;;;;;2.50;1.13;;;;;;;6.62;49.28;97801.91;5087859;28;20040;-70
2022/02/23 01:03:44;;;;;;;1.13;1.03;;;;;;;6.96;48.70;97793.50;5071773;28;20051;-70
2022/02/23 01:06:10;;;;;;;1.10;0.97;;;;;;;6.77;48.52;97786.91;5072053;28;20436;-70
2022/02/23 01:08:36;;;;;;;1.57;1.00;;;;;;;6.76;48.78;97798.44;5075863;28;20161;-70
2022/02/23 01:11:02;;;;;;;1.45;1.10;;;;;;;7.05;48.64;97795.06;5042876;28;20092;-69
2022/02/23 01:13:28;;;;;;;1.03;0.93;;;;;;;6.91;48.49;97787.94;5042180;28;20043;-70
2022/02/23 01:15:55;;;;;;;2.30;1.10;;;;;;;7.10;48.40;97795.34;5058602;28;20047;-70
2022/02/23 01:18:20;;;;;;;0.90;0.83;;;;;;;7.19;47.98;97807.44;5058322;28;20071;-71
2022/02/23 01:20:46;;;;;;;1.37;1.10;;;;;;;7.30;47.66;97812.28;5058538;28;20075;-70
2022/02/23 01:23:12;;;;;;;1.63;0.90;;;;;;;7.11;48.45;97823.38;5058639;28;20515;-71
2022/02/23 01:25:38;;;;;;;1.13;1.03;;;;;;;7.16;48.32;97807.00;5058583;28;20066;-71
2022/02/23 01:28:06;;;;;;;1.10;1.00;;;;;;;7.21;48.37;97817.84;5075768;28;20594;-71
2022/02/23 01:30:33;;;;;;;1.80;1.10;;;;;;;7.23;48.40;97813.16;5075775;28;21174;-72
2022/02/23 01:32:58;;;;;;;0.90;0.90;;;;;;;7.27;48.21;97823.22;5075283;28;20044;-71
2022/02/23 01:35:25;;;;;;;0.90;0.90;;;;;;;7.26;48.20;97829.47;5041796;28;20130;-70
2022/02/23 01:37:52;;;;;;;1.00;0.90;;;;;;;7.43;47.75;97828.31;5058751;28;20519;-71
2022/02/23 01:40:18;;;;;;;1.17;1.00;;;;;;;7.29;47.69;97797.44;5075086;28;20507;-70
2022/02/23 01:42:44;;;;;;;0.90;0.90;;;;;;;7.45;47.55;97828.94;5075381;28;20043;-70
2022/02/23 01:45:10;;;;;;;1.45;0.90;;;;;;;7.55;47.43;97842.69;5058945;28;20107;-71
2022/02/23 01:47:37;;;;;;;0.93;0.90;;;;;;;7.57;47.45;97830.13;5075692;28;20044;-76
2022/02/23 01:50:04;;;;;;;1.00;1.00;;;;;;;7.22;48.53;97835.31;5058810;28;20040;-71
2022/02/23 01:52:30;;;;;;;1.13;1.03;;;;;;;7.32;48.04;97823.47;5074790;28;20391;-71
2022/02/23 01:54:56;;;;;;;1.00;0.90;;;;;;;6.98;48.35;97799.41;5072913;28;20036;-72
2022/02/23 01:57:22;;;;;;;1.87;1.00;;;;;;;7.36;47.95;97837.13;5039105;28;20102;-72
2022/02/23 01:59:49;;;;;;;1.10;1.00;;;;;;;7.16;48.39;97831.56;5089554;28;20047;-72
2022/02/23 02:02:15;;;;;;;1.00;1.00;;;;;;;7.06;48.68;97849.47;5056458;28;20075;-72
2022/02/23 02:04:41;;;;;;;2.00;1.10;;;;;;;7.09;48.52;97843.84;5056388;28;20522;-71
2022/02/23 02:07:07;;;;;;;1.10;1.00;;;;;;;7.16;48.54;97836.84;5056209;28;20617;-73
2022/02/23 02:09:32;;;;;;;1.13;0.97;;;;;;;7.21;48.43;97849.50;5072960;28;20043;-72
2022/02/23 02:11:58;;;;;;;2.37;1.07;;;;;;;6.93;49.03;97849.28;5074107;28;20050;-70
2022/02/23 02:14:24;;;;;;;1.20;1.10;;;;;;;7.18;48.86;97858.59;5041452;28;20478;-70
2022/02/23 02:16:50;;;;;;;1.23;1.00;;;;;;;7.29;48.78;97850.22;5059541;28;20035;-72
2022/02/23 02:19:16;;;;;;;1.17;1.00;;;;;;;7.27;49.20;97857.53;5062084;28;20135;-71
2022/02/23 02:22:04;;;;;;;1.30;1.20;;;;;;;7.66;48.73;97863.38;5095795;28;20039;-72
2022/02/23 02:24:35;;;;;;;2.97;1.10;;;;;;;7.27;49.36;97862.81;5095984;28;20478;-72
2022/02/23 02:27:03;;;;;;;1.40;1.00;;;;;;;7.44;48.85;97864.25;5078426;28;20035;-72
2022/02/23 02:29:30;;;;;;;1.00;1.00;;;;;;;7.11;49.22;97862.97;5078464;28;20048;-72
2022/02/23 02:31:56;;;;;;;3.40;1.20;;;;;;;7.17;48.99;97861.41;5061644;28;20368;-72
2022/02/23 02:34:23;;;;;;;1.57;1.00;;;;;;;7.02;48.87;97869.31;5094954;28;20047;-77
2022/02/23 02:36:49;;;;;;;1.40;1.30;;;;;;;6.26;50.11;97840.38;5095415;28;20039;-72
2022/02/23 02:39:16;;;;;;;1.27;1.17;;;;;;;7.22;48.90;97877.53;5096568;28;20039;-72
2022/02/23 02:41:41;;;;;;;1.23;0.97;;;;;;;7.08;48.65;97867.78;5080387;28;20039;-73
2022/02/23 02:44:07;;;;;;;1.20;1.10;;;;;;;6.71;49.38;97882.59;5061848;28;20050;-71
2022/02/23 02:46:33;;;;;;;1.73;1.27;;;;;;;7.00;49.86;97881.03;5094910;28;20403;-70
2022/02/23 02:48:59;;;;;;;1.67;1.00;;;;;;;6.81;49.35;97853.34;5077901;28;20991;-72
2022/02/23 02:51:25;;;;;;;1.00;0.90;;;;;;;7.36;48.40;97893.41;5077752;28;20036;-70
2022/02/23 02:53:51;;;;;;;1.10;1.00;;;;;;;7.13;48.87;97878.63;5095246;28;20039;-70
2022/02/23 02:56:17;;;;;;;1.17;1.03;;;;;;;7.28;48.51;97882.09;5060894;28;20070;-70
2022/02/23 02:58:49;;;;;;;1.93;1.10;;;;;;;7.22;48.67;97882.81;5044261;28;20044;-71
2022/02/23 03:01:16;;;;;;;1.30;1.20;;;;;;;7.33;48.88;97891.13;5061429;28;20051;-70
2022/02/23 03:03:42;;;;;;;1.20;1.10;;;;;;;7.40;48.48;97893.84;5061160;28;20039;-71
2022/02/23 03:06:08;;;;;;;1.20;1.10;;;;;;;6.74;50.44;97884.88;5061099;28;20043;-71
2022/02/23 03:08:33;;;;;;;1.93;1.40;;;;;;;6.84;50.01;97882.81;5060728;28;20648;-70
2022/02/23 03:10:59;;;;;;;1.80;1.20;;;;;;;6.33;51.62;97887.97;5060885;28;20042;-72
2022/02/23 03:13:25;;;;;;;1.20;1.00;;;;;;;6.76;50.79;97880.22;5060835;28;20356;-71
2022/02/23 03:15:51;;;;;;;1.93;1.10;;;;;;;6.66;50.68;97895.50;5077203;28;20055;-72
2022/02/23 03:18:17;;;;;;;2.33;1.30;;;;;;;6.64;50.54;97920.41;5077928;28;20112;-72
2022/02/23 03:20:42;;;;;;;2.20;1.10;;;;;;;6.77;50.54;97908.28;5060612;28;20407;-72
2022/02/23 03:23:09;;;;;;;2.17;1.20;;;;;;;6.53;50.96;97904.97;5094523;28;20051;-70
2022/02/23 03:25:35;;;;;;;1.30;1.20;;;;;;;6.73;50.55;97869.22;5060653;28;20499;-72
2022/02/23 03:28:01;;;;;;;1.20;1.10;;;;;;;6.84;50.24;97909.19;5076998;28;20038;-71
2022/02/23 03:30:27;;;;;;;2.47;1.40;;;;;;;6.41;51.48;97914.28;5077027;28;20039;-71
2022/02/23 03:32:53;;;;;;;1.30;1.20;;;;;;;6.69;50.88;97910.97;5060135;28;20045;-69
2022/02/23 03:35:20;;;;;;;1.30;1.20;;;;;;;6.93;50.72;97909.13;5094245;28;20142;-71
2022/02/23 03:37:46;;;;;;;1.40;1.30;;;;;;;6.39;51.44;97930.28;5043982;28;20175;-71
2022/02/23 03:40:12;;;;;;;1.20;1.10;;;;;;;6.75;50.97;97897.06;5060016;28;20176;-71
2022/02/23 03:42:38;;;;;;;1.37;1.27;;;;;;;6.50;51.23;97905.34;5043763;28;20510;-70
2022/02/23 03:45:04;;;;;;;2.90;1.30;;;;;;;6.95;50.62;97929.06;5060111;28;20122;-71
2022/02/23 03:47:30;;;;;;;1.43;1.20;;;;;;;6.56;51.32;97918.66;5076460;28;20047;-71
2022/02/23 03:49:55;;;;;;;1.27;1.17;;;;;;;6.80;51.16;97910.56;5060028;28;20403;-72
2022/02/23 03:52:21;;;;;;;2.00;1.20;;;;;;;6.79;51.05;97922.13;5076921;28;20590;-71
2022/02/23 03:54:47;;;;;;;1.10;1.00;;;;;;;6.80;50.85;97921.09;5060538;28;20515;-72
2022/02/23 03:57:13;;;;;;;2.23;1.20;;;;;;;6.57;51.46;97895.72;5059994;28;20043;-75
2022/02/23 03:59:39;;;;;;;1.70;1.20;;;;;;;6.80;51.34;97915.84;5076591;28;20055;-72
2022/02/23 04:02:05;;;;;;;2.50;1.37;;;;;;;6.88;51.17;97922.88;5059880;28;20526;-72
2022/02/23 04:04:31;;;;;;;1.33;1.23;;;;;;;6.83;50.67;97894.38;5093356;28;20054;-71
2022/02/23 04:06:57;;;;;;;1.97;1.80;;;;;;;6.96;50.66;97916.69;5059516;28;20055;-70
2022/02/23 04:09:22;;;;;;;1.90;1.40;;;;;;;6.59;51.46;97920.94;5076186;28;20043;-70
2022/02/23 04:11:48;;;;;;;1.60;1.40;;;;;;;6.77;51.29;97897.72;5059466;28;20135;-72
2022/02/23 04:14:15;;;;;;;1.60;1.20;;;;;;;6.65;51.53;97896.50;5059706;28;20044;-75
2022/02/23 04:16:40;;;;;;;3.20;1.40;;;;;;;6.79;51.70;97923.94;5076474;28;20499;-72
2022/02/23 04:19:06;;;;;;;1.30;1.20;;;;;;;6.70;51.77;97903.88;5059456;28;20039;-70
2022/02/23 04:21:33;;;;;;;1.50;1.40;;;;;;;6.31;53.10;97937.41;5059235;28;20131;-73
2022/02/23 04:23:59;;;;;;;1.53;1.37;;;;;;;6.49;52.65;97937.94;5092883;28;20103;-70
2022/02/23 04:26:24;;;;;;;1.67;1.30;;;;;;;6.21;53.17;97940.25;5092900;28;20067;-70
2022/02/23 04:28:50;;;;;;;2.00;1.47;;;;;;;6.47;53.21;97934.69;5076130;28;20134;-69
2022/02/23 04:31:16;;;;;;;1.57;1.30;;;;;;;6.45;53.38;97932.22;5059251;28;20036;-70
2022/02/23 04:33:42;;;;;;;1.30;1.20;;;;;;;6.44;52.92;97940.31;5092619;28;20086;-69
2022/02/23 04:36:09;;;;;;;1.67;1.37;;;;;;;6.77;53.02;97936.47;5042250;28;20472;-69
2022/02/23 04:38:37;;;;;;;1.73;1.53;;;;;;;6.54;53.45;97948.81;5091730;28;20057;-71
2022/02/23 04:41:04;;;;;;;2.87;1.50;;;;;;;6.32;54.50;97942.50;5092125;28;20502;-70
2022/02/23 04:43:33;;;;;;;1.90;1.70;;;;;;;6.46;53.67;97952.31;5075769;28;20046;-70
2022/02/23 04:46:06;;;;;;;2.83;1.70;;;;;;;6.52;53.82;97922.59;5059133;28;20077;-70
2022/02/23 04:48:32;;;;;;;3.97;1.80;;;;;;;6.68;53.18;97943.63;5042731;28;20039;-70
2022/02/23 04:50:57;;;;;;;1.70;1.60;;;;;;;6.62;53.64;97954.88;5075457;28;20092;-72
2022/02/23 04:53:23;;;;;;;2.90;1.50;;;;;;;6.68;53.46;97950.69;5058711;28;20036;-72
2022/02/23 04:55:49;;;;;;;1.87;1.70;;;;;;;6.57;53.46;97948.47;5058675;28;20039;-71
2022/02/23 04:58:15;;;;;;;4.03;1.70;;;;;;;6.58;53.88;97950.13;5059011;28;20526;-70
2022/02/23 05:00:41;;;;;;;2.67;1.77;;;;;;;6.51;53.92;97959.69;5041726;28;20047;-69
2022/02/23 05:03:07;;;;;;;2.83;2.00;;;;;;;6.69;54.09;97971.63;5075625;28;20172;-71
2022/02/23 05:05:33;;;;;;;3.40;2.30;;;;;;;6.54;54.19;97976.00;5059116;28;20142;-71
2022/02/23 05:07:59;;;;;;;3.17;2.00;;;;;;;6.75;53.96;97973.56;5075633;28;20051;-72
2022/02/23 05:10:26;;;;;;;2.53;2.00;;;;;;;6.60;54.07;97967.41;5075644;28;20085;-72
2022/02/23 05:12:52;;;;;;;2.47;2.13;;;;;;;6.39;54.79;97976.91;5075069;28;20046;-71
2022/02/23 05:15:20;;;;;;;1.97;1.77;;;;;;;6.44;54.68;97983.28;5058660;28;20043;-74
2022/02/23 05:17:46;;;;;;;2.93;2.20;;;;;;;6.09;55.64;97980.34;5075945;28;20074;-72
2022/02/23 05:20:12;;;;;;;3.10;2.30;;;;;;;6.17;56.08;97982.91;5058197;28;20507;-71
2022/02/23 05:22:40;;;;;;;4.00;2.40;;;;;;;6.52;55.38;97993.81;5058720;28;20058;-73
2022/02/23 05:25:07;;;;;;;3.20;2.30;;;;;;;6.45;55.60;98006.06;5094130;28;20112;-74
2022/02/23 05:27:33;;;;;;;3.03;2.37;;;;;;;6.32;55.58;98010.25;5092084;28;20110;-72
2022/02/23 05:30:00;;;;;;;2.67;2.27;;;;;;;6.28;55.72;98009.75;5075409;28;20419;-71
2022/02/23 05:32:26;;;;;;;4.00;2.70;;;;;;;6.43;55.64;98013.31;5074635;28;20407;-71
2022/02/23 05:34:52;;;;;;;3.13;2.00;;;;;;;6.62;55.22;98012.91;5058283;28;20044;-71
2022/02/23 05:37:17;;;;;;;3.40;2.17;;;;;;;6.26;55.55;98014.34;5075389;28;20142;-72
2022/02/23 05:39:43;;;;;;;9.00;2.70;;;;;;;6.42;55.46;98016.13;5059041;28;20061;-72
2022/02/23 05:42:09;;;;;;;3.10;2.43;;;;;;;6.37;55.68;98019.25;5092356;28;20048;-72
2022/02/23 05:44:36;;;;;;;3.17;2.30;;;;;;;6.44;55.50;98020.22;5075708;28;20050;-71
2022/02/23 05:47:02;;;;;;;3.17;2.50;;;;;;;6.37;55.74;97994.72;5057975;28;20122;-72
2022/02/23 05:49:28;;;;;;;3.33;2.00;;;;;;;6.66;55.07;98031.81;5057908;28;20491;-71
2022/02/23 05:51:55;;;;;;;4.37;2.20;;;;;;;6.63;54.88;98030.34;5062555;28;20043;-71
2022/02/23 05:54:21;;;;;;;4.03;1.90;;;;;;;6.27;55.41;98023.91;5062208;28;20461;-72
2022/02/23 05:56:48;;;;;;;3.60;2.43;;;;;;;6.12;56.09;98043.25;5062310;28;20032;-71
2022/02/23 05:59:14;;;;;;;4.20;2.43;;;;;;;6.06;56.70;98026.28;5062082;28;20387;-71
2022/02/23 06:01:40;;;;;;;4.43;2.67;;;;;;;6.30;56.45;98039.41;5045390;28;20050;-71
2022/02/23 06:04:06;;;;;;;2.83;2.17;;;;;;;6.56;55.52;98061.06;5045277;28;20055;-73
2022/02/23 06:06:33;;;;;;;5.77;2.63;;;;;;;6.55;55.73;98048.84;5078467;28;20059;-72
2022/02/23 06:08:59;;;;;;;6.37;2.53;;;;;;;6.79;55.23;98048.75;5079016;28;20043;-72
2022/02/23 06:11:25;;;;;;;2.30;1.90;;;;;;;6.65;55.00;98052.13;5045012;28;20459;-72
2022/02/23 06:13:51;;;;;;;2.70;2.00;;;;;;;6.53;55.34;98064.00;5062135;28;20047;-78
2022/02/23 06:16:22;;;;;;;3.07;2.00;;;;;;;6.87;54.91;98066.34;5062096;28;20082;-71
2022/02/23 06:18:49;;;;;;;2.58;2.03;;;;;;;6.58;55.40;98060.88;5062328;28;20047;-72
2022/02/23 06:21:15;;;;;;;2.73;2.00;;;;;;;6.79;54.86;98076.94;5044655;28;20462;-72
2022/02/23 06:23:43;;;;;;;2.30;1.97;;;;;;;6.75;54.73;98076.47;5061329;28;20134;-72
2022/02/23 06:26:10;;;;;;;3.17;1.87;;;;;;;6.73;54.84;98080.28;5077907;28;20114;-72
2022/02/23 06:28:36;;;;;;;2.63;2.00;;;;;;;6.76;54.85;98083.38;5061583;28;20059;-72
2022/02/23 06:31:01;;;;;;;2.13;1.90;;;;;;;6.39;55.35;98083.19;5044533;28;20042;-73
2022/02/23 06:33:28;;;;;;;3.13;2.40;;;;;;;6.53;55.08;98092.22;5095159;28;20044;-72
2022/02/23 06:35:55;;;;;;;3.13;2.00;;;;;;;6.73;54.66;98096.91;5078586;28;20108;-76
2022/02/23 06:38:21;;;;;;;4.87;2.20;;;;;;;6.59;54.53;98088.91;5061222;28;20047;-70
2022/02/23 06:40:49;;;;;;;1.90;1.70;;;;;;;6.61;54.96;98087.72;5094687;28;20082;-72
2022/02/23 06:43:19;;;;;;;2.87;2.10;;;;;;;6.91;54.71;98101.94;5061474;28;20044;-71
2022/02/23 06:45:47;;;;;;;3.07;1.67;;;;;;;6.92;54.78;98102.78;5078188;28;20071;-72
2022/02/23 06:48:13;;;;;;;6.10;1.97;;;;;;;6.78;53.80;98113.03;5094046;28;20051;-69
2022/02/23 06:50:42;;;;;;;4.77;1.87;;;;;;;6.80;54.53;98103.16;5073706;28;20095;-71
2022/02/23 06:53:09;;;;;;;3.63;1.90;;;;;;;7.18;54.03;98106.75;5075686;28;20043;-70
2022/02/23 06:55:34;;;;;;;2.80;1.70;;;;;;;6.77;53.95;98102.66;5058416;28;20044;-69
2022/02/23 06:58:01;;;;;;;7.73;2.03;;;;;;;7.03;53.86;98112.97;5058705;28;20043;-69
2022/02/23 07:00:27;;;;;;;5.33;1.90;;;;;;;6.84;54.13;98104.44;5074590;28;20043;-70
2022/02/23 07:02:54;;;;;;;3.73;1.90;;;;;;;6.80;54.42;98112.88;5041399;28;20078;-70
2022/02/23 07:05:21;;;;;;;1.90;1.60;;;;;;;7.12;53.98;98115.34;5075310;28;20047;-68
2022/02/23 07:07:47;;;;;;;2.20;1.80;;;;;;;6.97;54.37;98134.72;5074988;28;20054;-65
2022/02/23 07:10:25;;;;;;;1.77;1.57;;;;;;;6.95;54.20;98128.81;5075246;28;20407;-66
2022/02/23 07:12:52;;;;;;;1.77;1.63;;;;;;;7.10;53.95;98129.72;5039830;28;20043;-68
2022/02/23 07:15:18;;;;;;;4.83;1.83;;;;;;;6.90;54.21;98129.34;5057782;28;20059;-67
2022/02/23 07:17:44;;;;;;;5.47;1.80;;;;;;;6.93;53.87;98123.72;5091792;28;20051;-71
2022/02/23 07:20:11;;;;;;;3.10;1.70;;;;;;;6.97;53.78;98138.19;5074429;28;20052;-70
2022/02/23 07:22:40;;;;;;;3.17;1.90;;;;;;;7.25;53.48;98142.03;5041184;28;20035;-69
2022/02/23 07:25:07;;;;;;;4.90;3.37;;;;;;;7.07;53.72;98146.75;5109570;28;20115;-69
2022/02/23 07:27:34;;;;;;;2.70;2.03;;;;;;;7.01;52.87;98149.25;5109572;28;20050;-70
2022/02/23 07:30:02;;;;;;;1.40;1.30;;;;;;;7.12;52.49;98151.50;5057910;28;20052;-68
2022/02/23 07:32:31;;;;;;;3.00;1.60;;;;;;;6.82;53.51;98111.72;5074583;28;20067;-70
2022/02/23 07:35:03;;;;;;;1.83;1.67;;;;;;;7.05;52.92;98155.81;5041063;28;20039;-72
2022/02/23 07:37:29;;;;;;;1.90;1.70;;;;;;;7.22;52.17;98155.59;5074071;28;20860;-70
2022/02/23 07:40:00;;;;;;;2.77;1.50;;;;;;;7.41;51.70;98136.63;5040906;28;20039;-68
2022/02/23 07:42:26;;;;;;;;;;;;;;;7.74;50.32;98168.94;5057545;28;20128;-74
2022/02/23 07:44:51;;;;;;;2.33;1.60;;;;;;;7.52;51.24;98153.94;5057141;28;20399;-69
2022/02/23 07:47:18;;;;;;;2.03;1.30;;;;;;;7.42;51.13;98167.34;5078188;28;20051;-71
2022/02/23 07:49:49;;;;;;;2.65;1.60;;;;;;;7.65;50.93;98168.19;5056652;28;20765;-71
2022/02/23 07:52:16;;;;;;;1.50;1.40;;;;;;;7.94;50.77;98175.41;5090334;28;20495;-70
2022/02/23 07:54:42;;;;;;;3.72;1.63;;;;;;;8.11;49.64;98175.13;5090699;28;20073;-72
2022/02/23 07:57:08;;;;;;;2.20;1.55;;;;;;;8.24;49.03;98153.41;5056970;28;20043;-73
2022/02/23 07:59:34;;;;;;;3.03;1.40;;;;;;;8.40;48.49;98188.44;5040378;28;20040;-72
2022/02/23 08:02:01;;;;;;;1.50;1.40;;;;;;;8.23;48.26;98184.31;5040421;28;20047;-71
2022/02/23 08:04:28;;;;;;;4.05;1.55;;;;;;;8.36;48.66;98199.56;5040516;28;20411;-72
2022/02/23 08:06:56;;;;;;;1.75;1.52;;;;;;;8.21;49.04;98196.84;5056961;28;20583;-71
2022/02/23 08:09:22;;;;;;;3.42;1.30;;;;;;;8.02;48.82;98209.72;5047615;28;20039;-69
2022/02/23 08:11:49;;;;;;;1.38;1.27;;;;;;;7.93;48.76;98208.16;5077862;28;20584;-72
2022/02/23 08:14:18;;;;;;;7.75;3.85;;;;;;;7.97;48.61;98218.19;5059987;28;20039;-72
2022/02/23 08:19:34;;;;;;;1.60;1.27;;;;;;;8.02;48.79;98207.91;5041130;28;20050;-70
2022/02/23 08:22:01;;;;;;;;;;;;;;;8.30;48.16;98200.28;5037346;28;20054;-72
2022/02/23 08:24:28;;;;;;;2.15;1.55;;;;;;;7.70;49.38;98229.28;5019773;28;19920;-71
2022/02/23 08:26:55;;;;;;;2.33;1.60;;;;;;;7.42;50.10;98214.06;5088198;28;20070;-69
2022/02/23 08:29:24;;;;;;;6.07;1.65;;;;;;;7.62;49.87;98216.09;5043810;28;20044;-71
2022/02/23 08:31:50;;;;;;;3.13;1.95;;;;;;;7.59;49.88;98224.38;5078890;28;20051;-73
2022/02/23 08:34:17;;;;;;;1.85;1.58;;;;;;;7.85;49.19;98224.06;5077202;28;20040;-73
2022/02/23 08:36:46;;;;;;;2.00;1.33;;;;;;;8.37;48.10;98241.72;5077295;28;20812;-75
2022/02/23 08:39:15;;;;;;;4.57;1.38;;;;;;;8.55;47.25;98230.78;5078142;28;20144;-77
2022/02/23 08:41:42;;;;;;;1.33;1.20;;;;;;;8.80;46.56;98248.09;5079184;28;20046;-75
2022/02/23 08:44:08;;;;;;;3.00;1.40;;;;;;;8.73;45.83;98249.81;5077142;28;20047;-76
2022/02/23 08:46:34;;;;;;;7.05;2.10;;;;;;;9.16;46.43;98251.69;5040114;28;20069;-74
2022/02/23 08:49:01;;;;;;;3.83;1.23;;;;;;;9.28;45.07;98260.81;5028756;28;20550;-74
2022/02/23 08:51:28;;;;;;;4.45;1.20;;;;;;;8.96;44.42;98234.69;5039734;28;20389;-73
2022/02/23 08:53:55;;;;;;;2.50;1.63;;;;;;;9.08;44.37;98265.03;5069587;28;20040;-74
2022/02/23 08:56:21;;;;;;;2.05;1.40;;;;;;;8.83;44.20;98250.38;5036345;28;20055;-73
2022/02/23 08:58:47;;;;;;;3.80;2.33;;;;;;;8.94;44.01;98273.78;5020332;28;20043;-74
2022/02/23 09:01:13;;;;;;;5.82;2.45;;;;;;;8.95;43.93;98286.00;5019752;28;20048;-74
2022/02/23 09:03:40;;;;;;;4.28;2.55;;;;;;;8.97;43.98;98259.34;5036012;28;20525;-73
2022/02/23 09:06:07;;;;;;;2.38;1.80;;;;;;;8.94;43.35;98265.81;5018885;28;20040;-71
2022/02/23 09:08:33;;;;;;;2.13;1.30;;;;;;;8.97;43.53;98275.22;5051910;28;20597;-71
2022/02/23 09:11:00;;;;;;;1.50;1.00;;;;;;;8.94;43.46;98288.81;5067317;28;20058;-71
2022/02/23 09:13:26;;;;;;;2.80;1.23;;;;;;;8.98;43.57;98293.56;5018381;28;20257;-72
2022/02/23 09:15:52;;;;;;;3.20;1.38;;;;;;;9.04;43.49;98297.34;5034039;28;20044;-71
2022/02/23 09:18:20;;;;;;;2.65;1.90;;;;;;;8.80;43.38;98295.75;5035619;28;20055;-71
2022/02/23 09:20:46;;;;;;;1.30;1.20;;;;;;;8.72;43.66;98305.59;5018039;28;20096;-71
2022/02/23 09:23:12;;;;;;;1.70;1.40;;;;;;;8.90;43.67;98311.38;5035403;28;20040;-72
2022/02/23 09:25:38;;;;;;;2.75;1.35;;;;;;;8.75;43.42;98298.09;5032549;28;20522;-73
2022/02/23 09:28:04;;;;;;;3.30;1.80;;;;;;;8.60;43.96;98281.34;5045103;28;20048;-71
2022/02/23 09:30:30;;;;;;;1.35;1.25;;;;;;;8.44;43.89;98302.69;5078550;28;20048;-73
2022/02/23 09:32:56;;;;;;;3.03;1.25;;;;;;;8.57;43.89;98308.19;5045248;28;20078;-72
2022/02/23 09:35:24;;;;;;;2.20;1.17;;;;;;;8.57;44.11;98308.19;5044661;28;20088;-72
2022/02/23 09:37:50;;;;;;;2.00;1.20;;;;;;;8.65;43.55;98318.72;5051600;28;20054;-72
2022/02/23 09:40:16;;;;;;;2.25;1.20;;;;;;;8.87;43.49;98315.22;5044488;28;20139;-72
2022/02/23 09:42:43;;;;;;;2.70;1.42;;;;;;;9.19;43.05;98314.06;5044408;28;20427;-70
2022/02/23 09:45:10;;;;;;;1.95;1.17;;;;;;;9.40;42.91;98322.09;5077603;28;20071;-71
2022/02/23 09:47:36;;;;;;;1.83;1.15;;;;;;;9.51;42.14;98325.13;5044482;28;20173;-72
2022/02/23 09:50:20;;;;;;;6.20;3.97;;;;;;;10.02;41.26;98326.81;5077829;28;20075;-70
2022/02/23 09:52:51;;;;;;;2.97;1.30;;;;;;;9.88;41.34;98343.59;5077697;28;20036;-74
2022/02/23 09:55:18;;;;;;;1.80;1.40;;;;;;;9.57;41.68;98342.13;5078476;28;20484;-75
2022/02/23 09:57:45;;;;;;;1.95;1.35;;;;;;;9.52;41.41;98357.75;5027903;28;20131;-77
2022/02/23 10:00:11;;;;;;;2.10;1.80;;;;;;;9.64;41.64;98354.47;5027287;28;20051;-71
2022/02/23 10:02:37;;;;;;;2.85;1.23;;;;;;;9.54;41.33;98356.56;5077314;28;20606;-72
2022/02/23 10:05:05;;;;;;;2.53;1.40;;;;;;;9.63;41.15;98357.28;5044531;28;20043;-73
2022/02/23 10:07:32;;;;;;;1.98;1.50;;;;;;;9.57;41.36;98372.13;5044124;28;20056;-76
2022/02/23 10:10:03;;;;;;;6.28;1.30;;;;;;;9.13;41.88;98365.13;5062021;28;20073;-74
2022/02/23 10:12:29;;;;;;;;;;;;;;;9.51;41.57;98372.00;5045390;28;20059;-69
2022/02/23 10:15:07;;;;;;;1.70;1.50;;;;;;;9.43;42.16;98364.97;5043425;28;19924;-71
2022/02/23 10:17:37;;;;;;;2.33;1.30;;;;;;;9.35;41.83;98377.50;5043767;28;20047;-70
2022/02/23 10:20:03;;;;;;;1.83;1.30;;;;;;;9.27;42.14;98372.28;5061494;28;20124;-71
2022/02/23 10:22:31;;;;;;;2.05;1.50;;;;;;;9.24;41.66;98372.63;5061316;28;20040;-71
2022/02/23 10:24:59;;;;;;;2.05;1.33;;;;;;;9.37;41.56;98360.41;5077712;28;20035;-70
2022/02/23 10:27:37;;;;;;;2.42;1.30;;;;;;;9.30;42.04;98382.50;5044912;28;20132;-70
2022/02/23 10:30:03;;;;;;;1.20;1.10;;;;;;;8.91;42.26;98390.63;5102787;28;20044;-71
2022/02/23 10:32:29;;;;;;;4.80;1.15;;;;;;;8.97;42.50;98405.78;5049093;28;20047;-70
2022/02/23 10:35:01;;;;;;;2.78;1.48;;;;;;;9.14;42.60;98404.66;5046624;28;20097;-70
2022/02/23 10:37:31;;;;;;;2.70;1.20;;;;;;;9.12;42.48;98408.50;5083598;28;20127;-70
2022/02/23 10:40:03;;;;;;;1.58;1.20;;;;;;;8.78;42.40;98332.16;5069391;28;20063;-69
2022/02/23 10:42:37;;;;;;;2.60;2.40;;;;;;;9.02;42.54;98416.69;5102371;28;20055;-69
2022/02/23 10:45:06;;;;;;;1.33;1.00;;;;;;;9.23;42.26;98416.84;5072617;28;20165;-69
2022/02/23 10:47:37;;;;;;;1.33;1.10;;;;;;;9.21;42.13;98425.97;5080766;28;20073;-70
2022/02/23 10:50:09;;;;;;;2.67;1.35;;;;;;;9.08;42.52;98433.69;5060631;28;20752;-70
2022/02/23 10:52:38;;;;;;;2.17;1.20;;;;;;;9.10;42.43;98434.34;5067896;28;20121;-69
2022/02/23 10:55:22;;;;;;;1.67;1.25;;;;;;;8.93;42.02;98441.59;5083966;28;20058;-68
2022/02/23 10:57:54;;;;;;;1.38;1.10;;;;;;;8.65;42.49;98453.69;5080923;28;20035;-71
2022/02/23 11:00:22;;;;;;;1.45;1.20;;;;;;;8.68;42.57;98429.50;5040627;28;20090;-70
2022/02/23 11:02:49;;;;;;;1.48;1.15;;;;;;;8.47;42.83;98437.25;5040549;28;20075;-69
2022/02/23 11:05:15;;;;;;;2.15;1.20;;;;;;;8.41;42.41;98437.94;5056524;28;20044;-70
2022/02/23 11:07:44;;;;;;;1.58;1.20;;;;;;;8.87;42.06;98452.88;5057116;28;20075;-67
2022/02/23 11:10:14;;;;;;;2.03;1.15;;;;;;;9.07;41.28;98448.72;5057546;28;20106;-70
2022/02/23 11:12:44;;;;;;;1.52;1.10;;;;;;;9.33;40.83;98458.97;5056868;28;20040;-68
2022/02/23 11:15:21;;;;;;;1.20;1.02;;;;;;;9.65;40.34;98474.56;5063435;28;20063;-69
2022/02/23 11:17:49;;;;;;;1.67;1.30;;;;;;;9.67;40.15;98468.06;5049809;28;20048;-69
2022/02/23 11:20:19;;;;;;;5.55;2.75;;;;;;;9.68;40.22;98468.91;5076441;28;20096;-71
2022/02/23 11:22:50;;;;;;;2.83;1.65;;;;;;;8.77;41.50;98446.97;5101065;28;20047;-70
2022/02/23 11:25:18;;;;;;;2.67;1.70;;;;;;;8.84;42.20;98479.69;5034549;28;20044;-70
2022/02/23 11:27:47;;;;;;;2.15;1.55;;;;;;;8.56;42.62;98482.00;5066131;28;20035;-71
2022/02/23 11:30:16;;;;;;;0.90;0.90;;;;;;;8.49;41.70;98490.78;5050680;28;20039;-69
2022/02/23 11:32:43;;;;;;;0.80;0.80;;;;;;;8.09;41.35;98496.22;5082508;28;20760;-70
2022/02/23 11:35:13;;;;;;;2.70;1.13;;;;;;;8.44;40.86;98498.44;5064752;28;20462;-71
2022/02/23 11:37:40;;;;;;;1.10;1.00;;;;;;;8.41;40.77;98509.38;5065999;28;20071;-71
2022/02/23 11:40:09;;;;;;;1.13;1.02;;;;;;;8.77;40.38;98517.63;5051265;28;20044;-71
2022/02/23 11:42:37;;;;;;;1.42;1.05;;;;;;;8.58;40.92;98506.47;5062154;28;20036;-71